Hayase Maru — JD2583 — position and weather

sailwx.info

Track history (hours):
 
Tides and Currents Weather Stations Pressure Air Temp Water Temp Dewpoint Dewpoint Depression Visibility Wind Speed Wind Dir Waves Ship Positions

Hayase Maru

Last reported at 2017-Oct-10 13:29 UTC. Time now 2017-Oct-17 19:09 UTC.
Position N 34°46' E 139°09'.

Length 73 m; draft 4 m.

Type: Ship. MMSI: 431000395.

Date/timePositionNaut miles runAvg speedWind from/ knotsBaromVisibWave heightAir tempDewpointWater temp
2017-Oct-10 13:29N 34°46' E 139°09'2210.6
2017-Oct-10 11:25N 34°60' E 139°29'610.7
2017-Oct-10 10:51N 35°03' E 139°35'410.8
2017-Oct-10 10:30N 35°06' E 139°39'610.9
2017-Oct-10 10:00N 35°10' E 139°44'510.9
2017-Oct-10 09:31N 35°14' E 139°46'610.9
2017-Oct-10 09:00N 35°19' E 139°43'7 7.9
2017-Oct-10 08:08N 35°25' E 139°47'5 7.0
2017-Oct-10 07:25N 35°21' E 139°51'0 0.0
2017-Oct-10 06:55N 35°21' E 139°51'0 0.0
2017-Oct-10 06:26N 35°21' E 139°51'0 0.0
2017-Oct-10 06:00N 35°21' E 139°51'0 0.0
2017-Oct-10 01:32N 35°21' E 139°51'0 0.2
2017-Oct-10 01:11N 35°21' E 139°51'0 0.2
2017-Oct-10 00:57N 35°21' E 139°51'0 0.0
2017-Oct-09 22:43N 35°21' E 139°51'0 0.1
2017-Oct-09 22:17N 35°21' E 139°51'5 0.3
2017-Oct-09 01:20N 35°26' E 139°49'410.9
2017-Oct-09 01:00N 35°24' E 139°46'611.0
2017-Oct-09 00:29N 35°18' E 139°45'511.3
2017-Oct-09 00:00N 35°13' E 139°47'612.4
2017-Oct-08 23:30N 35°06' E 139°46'612.7
2017-Oct-08 23:00N 35°03' E 139°40'238 9.6
2017-Oct-07 22:10N 34°11' E 134°58'712.2
2017-Oct-07 21:34N 34°18' E 134°59'312.0
2017-Oct-07 21:17N 34°20' E 135°03'312.7
2017-Oct-07 21:00N 34°21' E 135°07'2 4.0
2017-Oct-07 20:27N 34°22' E 135°09'0 0.0
2017-Oct-07 20:00N 34°22' E 135°09'0 0.0
2017-Oct-07 18:30N 34°22' E 135°09'0 0.0
2017-Oct-07 17:57N 34°22' E 135°09'0 0.0
2017-Oct-07 17:03N 34°22' E 135°09'0 0.0
2017-Oct-07 16:42N 34°22' E 135°09'0 0.0
2017-Oct-07 16:15N 34°22' E 135°09'0 0.0
2017-Oct-07 14:51N 34°22' E 135°09'0 0.0
2017-Oct-07 08:09N 34°22' E 135°09'0 0.0
2017-Oct-07 07:39N 34°22' E 135°09'0 0.0
2017-Oct-07 07:30N 34°22' E 135°09'0 0.0
2017-Oct-07 01:27N 34°22' E 135°09'0 0.0
2017-Oct-07 01:00N 34°22' E 135°09'0 0.0
2017-Oct-06 20:54N 34°22' E 135°09'0 0.0
2017-Oct-06 15:45N 34°22' E 135°09'0 0.0
2017-Oct-06 15:30N 34°22' E 135°09'0 0.0
2017-Oct-06 14:45N 34°22' E 135°09'0 0.0
2017-Oct-06 14:30N 34°22' E 135°09'0 0.0
2017-Oct-06 10:33N 34°22' E 135°09'0 0.0
2017-Oct-06 10:03N 34°22' E 135°09'0 0.0
2017-Oct-06 10:00N 34°22' E 135°09'0 0.0
2017-Oct-06 09:18N 34°22' E 135°09'0 0.0
2017-Oct-06 08:57N 34°22' E 135°09'0 0.0
2017-Oct-06 03:45N 34°22' E 135°09'0 0.0
2017-Oct-06 03:24N 34°22' E 135°09'0 0.0
2017-Oct-06 02:48N 34°22' E 135°09'0 0.0
2017-Oct-06 02:24N 34°22' E 135°09'0 0.0
2017-Oct-05 23:15N 34°22' E 135°09'0 0.0
2017-Oct-05 22:51N 34°22' E 135°09'0 0.0
2017-Oct-05 19:12N 34°22' E 135°09'0 0.0
2017-Oct-05 18:54N 34°22' E 135°09'0 0.0
2017-Oct-05 18:24N 34°22' E 135°09'0 0.0
2017-Oct-05 17:51N 34°22' E 135°09'0 0.0
2017-Oct-05 17:24N 34°22' E 135°09'0 0.0
2017-Oct-05 16:54N 34°22' E 135°09'0 0.0
2017-Oct-05 13:39N 34°22' E 135°09'0 0.0
2017-Oct-05 13:27N 34°22' E 135°09'0 0.0
2017-Oct-05 12:48N 34°22' E 135°09'0 0.0
2017-Oct-05 09:27N 34°22' E 135°09'0 0.0
2017-Oct-05 07:15N 34°22' E 135°09'0 0.0
2017-Oct-05 06:48N 34°22' E 135°09'0 0.0
2017-Oct-05 05:51N 34°22' E 135°09'0 0.0
2017-Oct-05 05:24N 34°22' E 135°09'0 0.0
2017-Oct-05 02:21N 34°22' E 135°09'0 0.0
2017-Oct-05 01:45N 34°22' E 135°09'0 0.0
2017-Oct-04 23:21N 34°22' E 135°09'0 0.0
2017-Oct-04 22:48N 34°22' E 135°09'0 0.0
2017-Oct-04 22:30N 34°22' E 135°09'0 0.0
2017-Oct-04 21:51N 34°22' E 135°09'0 0.0
2017-Oct-04 21:21N 34°22' E 135°09'0 0.0
2017-Oct-04 21:00N 34°22' E 135°09'0 0.0
2017-Oct-04 20:27N 34°22' E 135°09'0 0.0
2017-Oct-04 19:45N 34°22' E 135°09'0 0.0
2017-Oct-04 15:03N 34°22' E 135°09'0 0.0
2017-Oct-04 14:51N 34°22' E 135°09'0 0.0
2017-Oct-04 13:03N 34°22' E 135°09'0 0.0
2017-Oct-04 11:30N 34°22' E 135°09'0 0.0
2017-Oct-04 03:51N 34°22' E 135°09'6 5.8
2017-Oct-04 02:44N 34°28' E 135°06'512.6
2017-Oct-04 02:23N 34°32' E 135°04'512.9
2017-Oct-04 02:00N 34°36' E 135°02'  
Track history (hours):
 
Tides and Currents Weather Stations Pressure Air Temp Water Temp Dewpoint Dewpoint Depression Visibility Wind Speed Wind Dir Waves Ship Positions

Hayase Maru

Last reported at 2017-Oct-10 13:29 UTC. Time now 2017-Oct-17 19:09 UTC.
Position N 34°46' E 139°09'.

Length 73 m; draft 4 m.

Type: Ship. MMSI: 431000395.

Date/timePositionNaut miles runAvg speedWind from/ knotsBaromVisibWave heightAir tempDewpointWater temp
2017-Oct-10 13:29N 34°46' E 139°09'2210.6
2017-Oct-10 11:25N 34°60' E 139°29'610.7
2017-Oct-10 10:51N 35°03' E 139°35'410.8
2017-Oct-10 10:30N 35°06' E 139°39'610.9
2017-Oct-10 10:00N 35°10' E 139°44'510.9
2017-Oct-10 09:31N 35°14' E 139°46'610.9
2017-Oct-10 09:00N 35°19' E 139°43'7 7.9
2017-Oct-10 08:08N 35°25' E 139°47'5 7.0
2017-Oct-10 07:25N 35°21' E 139°51'0 0.0
2017-Oct-10 06:55N 35°21' E 139°51'0 0.0
2017-Oct-10 06:26N 35°21' E 139°51'0 0.0
2017-Oct-10 06:00N 35°21' E 139°51'0 0.0
2017-Oct-10 01:32N 35°21' E 139°51'0 0.2
2017-Oct-10 01:11N 35°21' E 139°51'0 0.2
2017-Oct-10 00:57N 35°21' E 139°51'0 0.0
2017-Oct-09 22:43N 35°21' E 139°51'0 0.1
2017-Oct-09 22:17N 35°21' E 139°51'5 0.3
2017-Oct-09 01:20N 35°26' E 139°49'410.9
2017-Oct-09 01:00N 35°24' E 139°46'611.0
2017-Oct-09 00:29N 35°18' E 139°45'511.3
2017-Oct-09 00:00N 35°13' E 139°47'612.4
2017-Oct-08 23:30N 35°06' E 139°46'612.7
2017-Oct-08 23:00N 35°03' E 139°40'238 9.6
2017-Oct-07 22:10N 34°11' E 134°58'712.2
2017-Oct-07 21:34N 34°18' E 134°59'312.0
2017-Oct-07 21:17N 34°20' E 135°03'312.7
2017-Oct-07 21:00N 34°21' E 135°07'2 4.0
2017-Oct-07 20:27N 34°22' E 135°09'0 0.0
2017-Oct-07 20:00N 34°22' E 135°09'0 0.0
2017-Oct-07 18:30N 34°22' E 135°09'0 0.0
2017-Oct-07 17:57N 34°22' E 135°09'0 0.0
2017-Oct-07 17:03N 34°22' E 135°09'0 0.0
2017-Oct-07 16:42N 34°22' E 135°09'0 0.0
2017-Oct-07 16:15N 34°22' E 135°09'0 0.0
2017-Oct-07 14:51N 34°22' E 135°09'0 0.0
2017-Oct-07 08:09N 34°22' E 135°09'0 0.0
2017-Oct-07 07:39N 34°22' E 135°09'0 0.0
2017-Oct-07 07:30N 34°22' E 135°09'0 0.0
2017-Oct-07 01:27N 34°22' E 135°09'0 0.0
2017-Oct-07 01:00N 34°22' E 135°09'0 0.0
2017-Oct-06 20:54N 34°22' E 135°09'0 0.0
2017-Oct-06 15:45N 34°22' E 135°09'0 0.0
2017-Oct-06 15:30N 34°22' E 135°09'0 0.0
2017-Oct-06 14:45N 34°22' E 135°09'0 0.0
2017-Oct-06 14:30N 34°22' E 135°09'0 0.0
2017-Oct-06 10:33N 34°22' E 135°09'0 0.0
2017-Oct-06 10:03N 34°22' E 135°09'0 0.0
2017-Oct-06 10:00N 34°22' E 135°09'0 0.0
2017-Oct-06 09:18N 34°22' E 135°09'0 0.0
2017-Oct-06 08:57N 34°22' E 135°09'0 0.0
2017-Oct-06 03:45N 34°22' E 135°09'0 0.0
2017-Oct-06 03:24N 34°22' E 135°09'0 0.0
2017-Oct-06 02:48N 34°22' E 135°09'0 0.0
2017-Oct-06 02:24N 34°22' E 135°09'0 0.0
2017-Oct-05 23:15N 34°22' E 135°09'0 0.0
2017-Oct-05 22:51N 34°22' E 135°09'0 0.0
2017-Oct-05 19:12N 34°22' E 135°09'0 0.0
2017-Oct-05 18:54N 34°22' E 135°09'0 0.0
2017-Oct-05 18:24N 34°22' E 135°09'0 0.0
2017-Oct-05 17:51N 34°22' E 135°09'0 0.0
2017-Oct-05 17:24N 34°22' E 135°09'0 0.0
2017-Oct-05 16:54N 34°22' E 135°09'0 0.0
2017-Oct-05 13:39N 34°22' E 135°09'0 0.0
2017-Oct-05 13:27N 34°22' E 135°09'0 0.0
2017-Oct-05 12:48N 34°22' E 135°09'0 0.0
2017-Oct-05 09:27N 34°22' E 135°09'0 0.0
2017-Oct-05 07:15N 34°22' E 135°09'0 0.0
2017-Oct-05 06:48N 34°22' E 135°09'0 0.0
2017-Oct-05 05:51N 34°22' E 135°09'0 0.0
2017-Oct-05 05:24N 34°22' E 135°09'0 0.0
2017-Oct-05 02:21N 34°22' E 135°09'0 0.0
2017-Oct-05 01:45N 34°22' E 135°09'0 0.0
2017-Oct-04 23:21N 34°22' E 135°09'0 0.0
2017-Oct-04 22:48N 34°22' E 135°09'0 0.0
2017-Oct-04 22:30N 34°22' E 135°09'0 0.0
2017-Oct-04 21:51N 34°22' E 135°09'0 0.0
2017-Oct-04 21:21N 34°22' E 135°09'0 0.0
2017-Oct-04 21:00N 34°22' E 135°09'0 0.0
2017-Oct-04 20:27N 34°22' E 135°09'0 0.0
2017-Oct-04 19:45N 34°22' E 135°09'0 0.0
2017-Oct-04 15:03N 34°22' E 135°09'0 0.0
2017-Oct-04 14:51N 34°22' E 135°09'0 0.0
2017-Oct-04 13:03N 34°22' E 135°09'0 0.0
2017-Oct-04 11:30N 34°22' E 135°09'0 0.0
2017-Oct-04 03:51N 34°22' E 135°09'6 5.8
2017-Oct-04 02:44N 34°28' E 135°06'512.6
2017-Oct-04 02:23N 34°32' E 135°04'512.9
2017-Oct-04 02:00N 34°36' E 135°02'  

Dump ship's entire track history